Kecskemet, Hungary

10:42 AM CET on December 03, 2016 (GMT +0100)
Kecskemét | | Change Station

Elev 0 ft 46.93 °N, 19.66 °E | Updated 5 minutes ago

Partly Cloudy
Partly Cloudy
35.4 °F
Feels Like 35 °F
N
1.2
Wind Variable Wind from East
Gusts 3.7 mph

Today
High -- | Low -- °F
--% Chance of Precip.
Yesterday
High -- | Low -- °F
Precip. -- in
Pressure 30.21 in
Visibility 6.2 miles
Clouds Few 2600 ft
Windchill 35 °F
Dew Point 28 °F
Humidity 75%
Rainfall 0.00 in
Snow Depth Not available.
7:08 AM 3:53 PM
Waxing Crescent, 14% visible
METAR LHBP 030930Z 30012KT 9999 FEW026 03/M03 Q1023 NOSIG
Pressure 30.21 in
Visibility 6.2 miles
Clouds Few 2600 ft
Windchill 35 °F
Dew Point 28 °F
Humidity 75%
Rainfall 0.00 in
Snow Depth Not available.
7:08 AM 3:53 PM
Waxing Crescent, 14% visible
METAR LHBP 030930Z 30012KT 9999 FEW026 03/M03 Q1023 NOSIG

10-Day Weather Forecast

×

Almanac

Astronomy

Dec. 03, 2016 Rise Set
Actual Time
Civil Twilight
Nautical Twilight
Astronomical Twilight
Moon
Length of Visible Light
Length of Day
Tomorrow will be .
, % of the Moon is Illuminated

Today's Extremes

Country Highs Country Lows

Community

WunderPhotos

Upload Photos

1,955,434 photos uploaded!

WunderBlog® & News

Nearby

Air Quality

  Air Quality AQ Index Pollutant
Not available.

Snow Depth

Station Depth Elevation

Earthquake Activity

City Distance Mag. Time & Date
Minimum magnitude displayed is 2.5.

Coastal Water Temperatures

Place Temperature

Stations

Nearby Weather Stations

Station Location Temp. Windchill Dew Point Humidity Wind Precip. Elev Updated Type